地図

経路データ

SID SEASON NUMBER BASIN SUBBASIN NAME ISO_TIME NATURE LAT LON WMO_WIND WMO_PRES WMO_AGENCY TRACK_TYPE DIST2LAND LANDFALL IFLAG USA_AGENCY USA_ATCF_ID USA_LAT USA_LON USA_RECORD USA_STATUS USA_WIND USA_PRES USA_SSHS USA_R34_NE USA_R34_SE USA_R34_SW USA_R34_NW USA_R50_NE USA_R50_SE USA_R50_SW USA_R50_NW USA_R64_NE USA_R64_SE USA_R64_SW USA_R64_NW USA_POCI USA_ROCI USA_RMW USA_EYE TOKYO_LAT TOKYO_LON TOKYO_GRADE TOKYO_WIND TOKYO_PRES TOKYO_R50_DIR TOKYO_R50_LONG TOKYO_R50_SHORT TOKYO_R30_DIR TOKYO_R30_LONG TOKYO_R30_SHORT TOKYO_LAND CMA_LAT CMA_LON CMA_CAT CMA_WIND CMA_PRES HKO_LAT HKO_LON HKO_CAT HKO_WIND HKO_PRES NEWDELHI_LAT NEWDELHI_LON NEWDELHI_GRADE NEWDELHI_WIND NEWDELHI_PRES NEWDELHI_CI NEWDELHI_DP NEWDELHI_POCI REUNION_LAT REUNION_LON REUNION_TYPE REUNION_WIND REUNION_PRES REUNION_TNUM REUNION_CI REUNION_RMW REUNION_R34_NE REUNION_R34_SE REUNION_R34_SW REUNION_R34_NW REUNION_R50_NE REUNION_R50_SE REUNION_R50_SW REUNION_R50_NW REUNION_R64_NE REUNION_R64_SE REUNION_R64_SW REUNION_R64_NW BOM_LAT BOM_LON BOM_TYPE BOM_WIND BOM_PRES BOM_TNUM BOM_CI BOM_RMW BOM_R34_NE BOM_R34_SE BOM_R34_SW BOM_R34_NW BOM_R50_NE BOM_R50_SE BOM_R50_SW BOM_R50_NW BOM_R64_NE BOM_R64_SE BOM_R64_SW BOM_R64_NW BOM_ROCI BOM_POCI BOM_EYE BOM_POS_METHOD BOM_PRES_METHOD NADI_LAT NADI_LON NADI_CAT NADI_WIND NADI_PRES WELLINGTON_LAT WELLINGTON_LON WELLINGTON_WIND WELLINGTON_PRES DS824_LAT DS824_LON DS824_STAGE DS824_WIND DS824_PRES TD9636_LAT TD9636_LON TD9636_STAGE TD9636_WIND TD9636_PRES TD9635_LAT TD9635_LON TD9635_WIND TD9635_PRES TD9635_ROCI NEUMANN_LAT NEUMANN_LON NEUMANN_CLASS NEUMANN_WIND NEUMANN_PRES MLC_LAT MLC_LON MLC_CLASS MLC_WIND MLC_PRES USA_GUST BOM_GUST BOM_GUST_PER REUNION_GUST REUNION_GUST_PER USA_SEAHGT USA_SEARAD_NE USA_SEARAD_SE USA_SEARAD_SW USA_SEARAD_NW STORM_SPEED STORM_DIR
1887211N10310 1887 29 NA NA NOT_NAMED 1887-07-30 06:00:00 TS 9.90000 -50.1000 35 hurdat_atl main 594 569 O_____________ hurdat_atl AL051887 9.90000 -50.1000 TS 35 0 10 273
1887211N10310 1887 29 NA NA NOT_NAMED 1887-07-30 09:00:00 TS 9.92760 -50.5876 main 569 558 P_____________ AL051887 9.92760 -50.5876 TS 35 0 10 276
1887211N10310 1887 29 NA NA NOT_NAMED 1887-07-30 12:00:00 TS 10.0000 -51.1000 35 hurdat_atl main 558 549 O_____________ hurdat_atl AL051887 10.0000 -51.1000 TS 35 0 11 282
1887211N10310 1887 29 NA NA NOT_NAMED 1887-07-30 15:00:00 TS 10.1425 -51.6499 main 549 539 P_____________ AL051887 10.1425 -51.6499 TS 35 0 11 285
1887211N10310 1887 29 NA NA NOT_NAMED 1887-07-30 18:00:00 TS 10.3000 -52.2000 35 hurdat_atl main 539 530 O_____________ hurdat_atl AL051887 10.3000 -52.2000 TS 35 0 11 284
1887211N10310 1887 29 NA NA NOT_NAMED 1887-07-30 21:00:00 TS 10.3999 -52.7076 main 530 521 P_____________ AL051887 10.3999 -52.7076 TS 35 0 10 281
1887211N10310 1887 29 NA NA NOT_NAMED 1887-07-31 00:00:00 TS 10.5000 -53.2000 35 hurdat_atl main 526 522 O_____________ hurdat_atl AL051887 10.5000 -53.2000 TS 35 0 10 284
1887211N10310 1887 29 NA NA NOT_NAMED 1887-07-31 03:00:00 TS 10.6500 -53.7150 main 529 529 P_____________ AL051887 10.6500 -53.7150 TS 37 0 10 287
1887211N10310 1887 29 NA NA NOT_NAMED 1887-07-31 06:00:00 TS 10.8000 -54.2000 40 hurdat_atl main 548 548 O_____________ hurdat_atl AL051887 10.8000 -54.2000 TS 40 0 9 286
1887211N10310 1887 29 NA NA NOT_NAMED 1887-07-31 09:00:00 TS 10.9074 -54.6226 main 560 552 P_____________ AL051887 10.9074 -54.6226 TS 40 0 8 284
1887211N10310 1887 29 NA NA NOT_NAMED 1887-07-31 12:00:00 TS 11.0000 -55.0000 40 hurdat_atl main 552 525 O_____________ hurdat_atl AL051887 11.0000 -55.0000 TS 40 0 8 285
1887211N10310 1887 29 NA NA NOT_NAMED 1887-07-31 15:00:00 TS 11.1075 -55.3725 main 525 509 P_____________ AL051887 11.1075 -55.3725 TS 40 0 7 286
1887211N10310 1887 29 NA NA NOT_NAMED 1887-07-31 18:00:00 TS 11.2000 -55.7000 40 hurdat_atl main 509 486 O_____________ hurdat_atl AL051887 11.2000 -55.7000 TS 40 0 6 284
1887211N10310 1887 29 NA NA NOT_NAMED 1887-07-31 21:00:00 TS 11.2499 -55.9651 main 486 480 P_____________ AL051887 11.2499 -55.9651 TS 40 0 5 282
1887211N10310 1887 29 NA NA NOT_NAMED 1887-08-01 00:00:00 TS 11.3000 -56.2000 40 hurdat_atl main 480 473 O_____________ hurdat_atl AL051887 11.3000 -56.2000 TS 40 0 5 287
1887211N10310 1887 29 NA NA NOT_NAMED 1887-08-01 03:00:00 TS 11.3924 -56.4350 main 475 462 P_____________ AL051887 11.3924 -56.4350 TS 40 0 5 292
1887211N10310 1887 29 NA NA NOT_NAMED 1887-08-01 06:00:00 TS 11.5000 -56.7000 40 hurdat_atl main 466 448 O_____________ hurdat_atl AL051887 11.5000 -56.7000 TS 40 0 6 289
1887211N10310 1887 29 NA NA NOT_NAMED 1887-08-01 09:00:00 TS 11.5849 -57.0126 main 448 408 P_____________ AL051887 11.5849 -57.0126 TS 40 0 7 286
1887211N10310 1887 29 NA NA NOT_NAMED 1887-08-01 12:00:00 TS 11.7000 -57.4000 40 hurdat_atl main 408 370 O_____________ hurdat_atl AL051887 11.7000 -57.4000 TS 40 0 9 290
1887211N10310 1887 29 NA NA NOT_NAMED 1887-08-01 15:00:00 TS 11.8850 -57.8700 main 363 324 P_____________ AL051887 11.8850 -57.8700 TS 42 0 11 292
1887211N10310 1887 29 NA NA NOT_NAMED 1887-08-01 18:00:00 TS 12.1000 -58.4000 45 hurdat_atl main 324 290 O_____________ hurdat_atl AL051887 12.1000 -58.4000 TS 45 0 11 292
1887211N10310 1887 29 NA NA NOT_NAMED 1887-08-01 21:00:00 TS 12.2999 -58.9426 main 290 259 P_____________ AL051887 12.2999 -58.9426 TS 45 0 11 290
1887211N10310 1887 29 NA CS NOT_NAMED 1887-08-02 00:00:00 TS 12.5000 -59.5000 45 hurdat_atl main 259 244 O_____________ hurdat_atl AL051887 12.5000 -59.5000 TS 45 0 12 290
1887211N10310 1887 29 NA CS NOT_NAMED 1887-08-02 03:00:00 TS 12.7000 -60.0650 main 244 240 P_____________ AL051887 12.7000 -60.0650 TS 45 0 11 290
1887211N10310 1887 29 NA CS NOT_NAMED 1887-08-02 06:00:00 TS 12.9000 -60.6000 45 hurdat_atl main 250 248 O_____________ hurdat_atl AL051887 12.9000 -60.6000 TS 45 0 11 293
1887211N10310 1887 29 NA CS NOT_NAMED 1887-08-02 09:00:00 TS 13.1074 -61.0725 main 268 268 P_____________ AL051887 13.1074 -61.0725 TS 45 0 10 295
1887211N10310 1887 29 NA CS NOT_NAMED 1887-08-02 12:00:00 TS 13.3000 -61.5000 45 hurdat_atl main 291 291 O_____________ hurdat_atl AL051887 13.3000 -61.5000 TS 45 0 9 293
1887211N10310 1887 29 NA CS NOT_NAMED 1887-08-02 15:00:00 TS 13.4499 -61.9002 main 303 303 P_____________ AL051887 13.4499 -61.9002 TS 47 0 8 291
1887211N10310 1887 29 NA CS NOT_NAMED 1887-08-02 18:00:00 TS 13.6000 -62.3000 50 hurdat_atl main 324 324 O_____________ hurdat_atl AL051887 13.6000 -62.3000 TS 50 0 9 293
1887211N10310 1887 29 NA CS NOT_NAMED 1887-08-02 21:00:00 TS 13.8000 -62.7500 main 347 347 P_____________ AL051887 13.8000 -62.7500 TS 50 0 10 295
1887211N10310 1887 29 NA CS NOT_NAMED 1887-08-03 00:00:00 TS 14.0000 -63.2000 50 hurdat_atl main 369 369 O_____________ hurdat_atl AL051887 14.0000 -63.2000 TS 50 0 9 293
1887211N10310 1887 29 NA CS NOT_NAMED 1887-08-03 03:00:00 TS 14.1574 -63.6076 main 395 395 P_____________ AL051887 14.1574 -63.6076 TS 50 0 8 291
1887211N10310 1887 29 NA CS NOT_NAMED 1887-08-03 06:00:00 TS 14.3000 -64.0000 50 hurdat_atl main 414 414 O_____________ hurdat_atl AL051887 14.3000 -64.0000 TS 50 0 8 291
1887211N10310 1887 29 NA CS NOT_NAMED 1887-08-03 09:00:00 TS 14.4499 -64.4001 main 426 395 P_____________ AL051887 14.4499 -64.4001 TS 50 0 8 291
1887211N10310 1887 29 NA CS NOT_NAMED 1887-08-03 12:00:00 TS 14.6000 -64.8000 50 hurdat_atl main 395 373 O_____________ hurdat_atl AL051887 14.6000 -64.8000 TS 50 0 8 291
1887211N10310 1887 29 NA CS NOT_NAMED 1887-08-03 15:00:00 TS 14.7499 -65.2001 main 373 341 P_____________ AL051887 14.7499 -65.2001 TS 50 0 8 291
1887211N10310 1887 29 NA CS NOT_NAMED 1887-08-03 18:00:00 TS 14.9000 -65.6000 50 hurdat_atl main 341 325 O_____________ hurdat_atl AL051887 14.9000 -65.6000 TS 50 0 8 291
1887211N10310 1887 29 NA CS NOT_NAMED 1887-08-03 21:00:00 TS 15.0499 -66.0001 main 325 302 P_____________ AL051887 15.0499 -66.0001 TS 50 0 8 291
1887211N10310 1887 29 NA CS NOT_NAMED 1887-08-04 00:00:00 TS 15.2000 -66.4000 50 hurdat_atl main 302 291 O_____________ hurdat_atl AL051887 15.2000 -66.4000 TS 50 0 8 291
1887211N10310 1887 29 NA CS NOT_NAMED 1887-08-04 03:00:00 TS 15.3499 -66.8001 main 291 268 P_____________ AL051887 15.3499 -66.8001 TS 50 0 8 291
1887211N10310 1887 29 NA CS NOT_NAMED 1887-08-04 06:00:00 TS 15.5000 -67.2000 50 hurdat_atl main 268 258 O_____________ hurdat_atl AL051887 15.5000 -67.2000 TS 50 0 8 291
1887211N10310 1887 29 NA CS NOT_NAMED 1887-08-04 09:00:00 TS 15.6499 -67.6001 main 260 246 P_____________ AL051887 15.6499 -67.6001 TS 50 0 8 291
1887211N10310 1887 29 NA CS NOT_NAMED 1887-08-04 12:00:00 TS 15.8000 -68.0000 50 hurdat_atl main 249 247 O_____________ hurdat_atl AL051887 15.8000 -68.0000 TS 50 0 8 291
1887211N10310 1887 29 NA CS NOT_NAMED 1887-08-04 15:00:00 TS 15.9500 -68.4075 main 257 235 P_____________ AL051887 15.9500 -68.4075 TS 50 0 8 291
1887211N10310 1887 29 NA CS NOT_NAMED 1887-08-04 18:00:00 TS 16.1000 -68.8000 50 hurdat_atl main 235 224 O_____________ hurdat_atl AL051887 16.1000 -68.8000 TS 50 0 8 293
1887211N10310 1887 29 NA CS NOT_NAMED 1887-08-04 21:00:00 TS 16.2499 -69.1576 main 227 211 P_____________ AL051887 16.2499 -69.1576 TS 50 0 7 294
1887211N10310 1887 29 NA CS NOT_NAMED 1887-08-05 00:00:00 TS 16.4000 -69.5000 50 hurdat_atl main 214 194 O_____________ hurdat_atl AL051887 16.4000 -69.5000 TS 50 0 7 295
1887211N10310 1887 29 NA CS NOT_NAMED 1887-08-05 03:00:00 TS 16.5499 -69.8426 main 194 162 P_____________ AL051887 16.5499 -69.8426 TS 47 0 7 294
1887211N10310 1887 29 NA CS NOT_NAMED 1887-08-05 06:00:00 TS 16.7000 -70.2000 45 hurdat_atl main 162 123 O_____________ hurdat_atl AL051887 16.7000 -70.2000 TS 45 0 8 293
1887211N10310 1887 29 NA CS NOT_NAMED 1887-08-05 09:00:00 TS 16.8424 -70.5776 main 123 79 P_____________ AL051887 16.8424 -70.5776 TS 45 0 8 291
1887211N10310 1887 29 NA CS NOT_NAMED 1887-08-05 12:00:00 TS 17.0000 -71.0000 45 hurdat_atl main 79 44 O_____________ hurdat_atl AL051887 17.0000 -71.0000 TS 45 0 9 292
1887211N10310 1887 29 NA CS NOT_NAMED 1887-08-05 15:00:00 TS 17.1924 -71.4701 main 46 39 P_____________ AL051887 17.1924 -71.4701 TS 45 0 10 293
1887211N10310 1887 29 NA CS NOT_NAMED 1887-08-05 18:00:00 TS 17.4000 -72.0000 45 hurdat_atl main 61 61 O_____________ hurdat_atl AL051887 17.4000 -72.0000 TS 45 0 11 290
1887211N10310 1887 29 NA CS NOT_NAMED 1887-08-05 21:00:00 TS 17.5849 -72.5778 main 59 44 P_____________ AL051887 17.5849 -72.5778 TS 45 0 12 289
1887211N10310 1887 29 NA CS NOT_NAMED 1887-08-06 00:00:00 TS 17.8000 -73.2000 45 hurdat_atl main 44 0 O_____________ hurdat_atl AL051887 17.8000 -73.2000 TS 45 0 13 293
1887211N10310 1887 29 NA CS NOT_NAMED 1887-08-06 03:00:00 TS 18.0847 -73.8276 main 0 0 P_____________ AL051887 18.0847 -73.8276 TS 42 0 14 296
1887211N10310 1887 29 NA CS NOT_NAMED 1887-08-06 06:00:00 TS 18.4000 -74.5000 40 hurdat_atl main 0 0 O_____________ hurdat_atl AL051887 18.4000 -74.5000 TS 40 0 15 295
1887211N10310 1887 29 NA CS NOT_NAMED 1887-08-06 09:00:00 TS 18.7077 -75.2649 main 90 90 P_____________ AL051887 18.7077 -75.2649 TS 40 0 15 293
1887211N10310 1887 29 NA CS NOT_NAMED 1887-08-06 12:00:00 TS 19.0000 -76.0000 40 hurdat_atl main 94 89 O_____________ hurdat_atl AL051887 19.0000 -76.0000 TS 40 0 13 294
1887211N10310 1887 29 NA CS NOT_NAMED 1887-08-06 15:00:00 TS 19.2568 -76.5580 main 78 44 P_____________ AL051887 19.2568 -76.5580 TS 40 0 12 296
1887211N10310 1887 29 NA CS NOT_NAMED 1887-08-06 18:00:00 TS 19.5000 -77.1000 40 hurdat_atl main 44 11 O_____________ hurdat_atl AL051887 19.5000 -77.1000 TS 40 0 13 293
1887211N10310 1887 29 NA CS NOT_NAMED 1887-08-06 21:00:00 TS 19.7425 -77.7777 main 15 10 P_____________ AL051887 19.7425 -77.7777 TS 37 0 14 291
1887211N10310 1887 29 NA CS NOT_NAMED 1887-08-07 00:00:00 TS 20.0000 -78.5000 35 hurdat_atl main 86 86 O_____________ hurdat_atl AL051887 20.0000 -78.5000 TS 35 0 15 293
1887211N10310 1887 29 NA CS NOT_NAMED 1887-08-07 03:00:00 TS 20.3075 -79.2224 main 106 106 P_____________ AL051887 20.3075 -79.2224 TS 35 0 14 295
1887211N10310 1887 29 NA CS NOT_NAMED 1887-08-07 06:00:00 TS 20.6000 -79.9000 35 hurdat_atl main 119 105 O_____________ hurdat_atl AL051887 20.6000 -79.9000 TS 35 0 12 294
1887211N10310 1887 29 NA CS NOT_NAMED 1887-08-07 09:00:00 TS 20.8216 -80.4280 main 108 103 P_____________ AL051887 20.8216 -80.4280 TS 35 0 11 291
1887211N10310 1887 29 NA CS NOT_NAMED 1887-08-07 12:00:00 TS 21.0000 -81.0000 35 hurdat_atl main 113 85 O_____________ hurdat_atl AL051887 21.0000 -81.0000 TS 35 0 14 285
1887211N10310 1887 29 NA CS NOT_NAMED 1887-08-07 15:00:00 TS 21.1731 -81.8348 main 85 15 P_____________ AL051887 21.1731 -81.8348 TS 35 0 16 281
1887211N10310 1887 29 NA CS NOT_NAMED 1887-08-07 18:00:00 TS 21.3000 -82.7000 35 hurdat_atl main 15 11 O_____________ hurdat_atl AL051887 21.3000 -82.7000 TS 35 0 15 278
1887211N10310 1887 29 NA CS NOT_NAMED 1887-08-07 21:00:00 TS 21.3673 -83.4051 main 42 42 P_____________ AL051887 21.3673 -83.4051 TS 35 0 12 275
1887211N10310 1887 29 NA CS NOT_NAMED 1887-08-08 00:00:00 TS 21.4000 -84.0000 35 hurdat_atl main 55 O_____________ hurdat_atl AL051887 21.4000 -84.0000 TS 35 0 11 273

IBTrACS Databaseについて

本データベースは、米国NOAAが公開する1842年以降の世界の熱帯低気圧のベストトラックデータアーカイブInternational Best Track Archive for Climate Stewardship (IBTrACS)を、ウェブで閲覧しやすい形式に変換したものです。

最終更新日:2021-11-26